PTAO2: Poteau River, Poteau, OK

                                SHEF ID:       PTAO2     Poteau River at Poteau, OK
STATION TYPE:
Regulating: Stage = 20.00, Flow = 7395

PRECIP STAGE RIV-FLOW VOLTAGE BAT-LOAD
in ft cfs volt volt
Ccp-Rev Ccp-Rev Ccp-Rev Ccp-Rev Ccp-Rev
(America/Chicago)
06/28 00:00 0.00 16.08 5326 12.84 12.35
06/28 01:00 0.00 16.25 5425 12.83 12.34
06/28 02:00 0.00 16.42 5494 12.81 12.34
06/28 03:00 0.00 16.54 5543 12.80 12.30
06/28 04:00 0.00 16.68 5600 12.79 12.30
06/28 05:00 0.00 16.77 5637 12.78 12.29
06/28 06:00 0.00 16.86 5673 12.78 12.29
06/28 07:00 0.00 16.93 5702 12.91 12.34
06/28 08:00 0.00 17.04 5747 13.47 12.80
06/28 09:00 0.00 17.08 5763 13.75 13.03
06/28 10:00 0.00 17.15 5792 13.26 12.81
06/28 11:00 0.00 17.20 5812 13.15 12.70
06/28 12:00 0.00 17.24 5829 13.11 12.61
06/28 13:00 0.00 17.28 5845 13.06 12.59
06/28 14:00 0.00 17.29 5849 13.09 12.58
06/28 15:00 0.00 17.31 5857 13.05 12.57
06/28 16:00 0.00 17.34 5869 13.00 12.54
06/28 17:00 0.00 17.40 5894 12.97 12.50
06/28 18:00 0.00 17.41 5898 12.99 12.49
06/28 19:00 0.00 17.43 5906 13.13 12.54
06/28 20:00 0.00 17.46 5919 13.10 12.63
06/28 21:00 0.00 17.47 5923 12.95 12.48
06/28 22:00 0.00 17.49 5931 12.90 12.43
06/28 23:00 0.00 17.49 5931 12.88 12.42
Data processed at Sun 29Jun2025 04:48 GMT

Parsing this webpage?

Checkout our new Data API! CWMSDataAPI (CDA)

Timeseries IDs (TSIDs)

TSIDs used from left to right in the data table
POTE.Precip-Inc.Total.1Hour.1Hour.Ccp-Rev
POTE.Stage.Inst.1Hour.0.Ccp-Rev
POTE.Flow.Inst.1Hour.0.Ccp-Rev
POTE.Volt-Battery.Inst.1Hour.0.Ccp-Rev
POTE.Volt-Battery Load.Inst.1Hour.0.Ccp-Rev

                            

All information presented herein is the property of the government of the United States of America and may be revised or deleted at any time without prior notice. Dissemination of this information without the expressed written consent of the Public Affairs Office, Tulsa District U.S. Army Corps of Engineers is strictly prohibited. These data are gathered electronically and, as presented, have NOT undergone any form of quality control. These data are NOT guaranteed to be valid or correct.